My Meet Scores
Mikayla Lesniewski, Gym Kinetics Gymnastics - MyMeetScores.com
Top100 | Top Teams | Upcoming Meets | Completed Meets | Latest | Add Scores | Help| Support | Bookmark and Share

Mikayla Lesniewski, Gym Kinetics Gymnastics
Personal Bests
LevelVault BarsBeamFloorAA
29.2258.900 9.1759.25036.300
39.7259.425 9.3759.42537.950
49.2509.600 9.5009.27537.175
Meet Scores
Date Meet Team Session Level Division Vault Bars Beam Floor AA
2019-03-22 Illinois Gymnastics State Championships Gym Kinetics Gymnastics 11 4 Sr C 9.000 10T 9.600 3 9.350 5T 9.000 13T 36.950 5
2019-03-01 NGCD Academy's 2019 Flip'r Invitational Gym Kinetics Gymnastics 10 4 Jr B 9.250 4 9.000 7 9.050 8 9.050 3T 36.350 4
2019-02-23 Kinetic Classic 2019 Gym Kinetics Gymnastics 1 4 Older 8.575 21T 9.100 11T 8.725 28 9.025 14 35.425 16T
2019-02-08 Midwest Twisters Harley Meet Womens Gym Kinetics Gymnastics T10 4 11 yrs. 8.525 6 7.675 10 9.150 4 8.350 8 33.700 8
2019-01-18 2019 Bravo Classic Gym Kinetics Gymnastics 3B 4 Sr 8.925 10 8.850 7T 9.150 8T 8.550 13T 35.475 9T
2019-01-11 St Jude Benefit Meet Gym Kinetics Gymnastics 6A 4 Sr A 9.100 8 8.400 7T 9.500 1 8.750 9T 35.750 3
2018-12-14 2018 Aspire Classic Gym Kinetics Gymnastics 6A 4 Older 9.050 9T 8.900 16T 9.300 8T 9.150 11 36.400 13
2018-03-08 Level 4 & 5 State Gym Kinetics Gymnastics All 4 Jr D 8.850 14 8.850 13T 8.675 24 8.500 23T 34.875 20
2018-02-23 Kinetic Classic Gym Kinetics Gymnastics 7 4 Older 8.700 20T 8.950 34T 8.750 61 9.275 22T 35.675 29
2018-02-03 Midwest Games Gym Kinetics Gymnastics 6 4 Sr A 8.675 5T 9.100 4 9.325 6T 8.750 9T 35.850 5
2018-01-19 2018 Bravo Classic Gym Kinetics Gymnastics 10B 4 Jr 9.200 3 9.225 9 9.500 3T 9.250 9T 37.175 2
2017-12-15 2017 Aspire Classic Gym Kinetics Gymnastics 7A 4 Middle 8.700 7T 9.000 7 9.425 2 9.050 12T 36.175 4
2017-03-30 2017 Illinois Level 3 & 5 State Gym Kinetics Gymnastics All 3 Jr E 9.725 1T 9.425 7 9.375 6 9.425 4 37.950 4
2017-02-24 Kinetic Classic Gym Kinetics Gymnastics 4,5,6,7 3 All Ages 9.525 3T 9.150 37T 9.225 22T 9.150 30T 37.050 14
2017-02-09 Hal's Harley-Davidson Invite Gym Kinetics Gymnastics S11 3 9 yrs. 9.650 2 9.150 8T 9.375 3 9.000 10 37.175 3
2017-01-13 St Jude Benefit Meet Gym Kinetics Gymnastics 7A 3 Sr A 9.300 2 9.350 2 8.600 9 9.200 4 36.450 1T
2016-12-16 2016 Aspire Classic Gym Kinetics Gymnastics 11 3 Older 9.300 12 9.300 5T 8.800 6T 9.025 10 36.425 5T
2016-03-04 2016 Illinois Level 3 State Championships Gym Kinetics Gymnastics 3 Youth-D 9.675 5 9.000 18 8.950 8 8.475 23 36.100 14
2016-02-20 Big Classic Gym Kinetics Gymnastics 4B 3 Child B 9.100 8T 9.250 3 8.800 14 8.875 11 36.025 7
2016-01-22 2016 Honkytonk Classic Gym Kinetics Gymnastics 02 3 Ch 0.000 7 0.000 7 0.000 7 0.000 7 0.000 7
2016-01-15 2016 Bravo Classic Gym Kinetics Gymnastics 3A 3 8yrs 8.800 18 9.100 10 9.000 8 8.700 12 35.600 10
2015-12-18 2015 Aspire Classic Gym Kinetics Gymnastics 11 3 Middle 9.275 6T 9.150 5 7.800 21 8.950 17 35.175 19
2015-03-14 2015 Indiana Level 2 and 3 North State Midwest Training and Ice Center 2 Jr A 9.225 2T 8.775 13T 9.175 4 8.800 10T 35.975 9
2015-03-06 Girl Power Invitational Midwest Training and Ice Center 5B 2 L2: Ch. C 8.975 9 8.900 5 9.175 2 9.250 1 36.300 2
2015-02-07 2015 Irish Classic Midwest Training and Ice Center 1 2 7 Yrs. 8.600 4 8.200 7 9.050 2 8.700 5 34.550 4T
2015-01-23 King Arthur Invitational Midwest Training and Ice Center L2 2 Jr 8.950 8 8.750 11 8.875 8 8.900 9 35.475 9
2014-12-13 2014 Hoosier Cup Midwest Training and Ice Center 3A 2 7 Yrs. 8.900 5T 8.350 8T 8.800 9T 9.100 4T 35.150 5
Get your scores on
a t-shirt, pin, or hoodie

www.lazysuits.com